This is the latest recevied weather packets stored in our database for station/object KG7FOQ-13. If no packets are shown the sender has not sent any weather packets the latest 1 day(s).
| Time | Temp. | Humidity | Pressure | Rain* | Wind** | Luminosity | Snow |
|---|---|---|---|---|---|---|---|
| 1836274681 | 23.33° C | 28% | 1014.8 hPa | 0 mm | 2.24 m/s, 193° | - | - |
| 1836274532 | 22.22° C | 31% | 1014.9 hPa | 0 mm | 2.68 m/s, 108° | - | - |
| 1836274380 | 21.67° C | 34% | 1014.9 hPa | 0 mm | 1.34 m/s, 69° | - | - |
| 1836274231 | 22.78° C | 30% | 1014.8 hPa | 0 mm | 1.79 m/s, 79° | - | - |
| 1836274080 | 21.11° C | 39% | 1014.9 hPa | 0 mm | 1.34 m/s, 203° | - | - |
| 1778054090 | 8.89° C | 48% | 1015.1 hPa | 0 mm | 6.71 m/s, 63° | - | - |
| 1778053789 | 8.89° C | 48% | 1015 hPa | 0 mm | 8.49 m/s, 63° | - | - |
| 1778053489 | 8.89° C | 48% | 1014.9 hPa | 0 mm | 8.49 m/s, 77° | - | - |
| 1778053188 | 8.89° C | 48% | 1015 hPa | 0 mm | 7.6 m/s, 68° | - | - |
| 1778052888 | 8.89° C | 49% | 1014.9 hPa | 0 mm | 7.6 m/s, 69° | - | - |
| 1778052587 | 8.89° C | 47% | 1014.8 hPa | 0 mm | 8.05 m/s, 59° | - | - |
| 1778052287 | 8.89° C | 49% | 1015 hPa | 0 mm | 6.71 m/s, 41° | - | - |
| 1778051986 | 8.89° C | 50% | 1015 hPa | 0 mm | 6.26 m/s, 38° | - | - |
| 1778051686 | 8.89° C | 49% | 1014.8 hPa | 0 mm | 7.6 m/s, 66° | - | - |
| 1778051385 | 8.89° C | 49% | 1014.9 hPa | 0 mm | 7.15 m/s, 65° | - | - |
| 1778051085 | 8.89° C | 51% | 1014.8 hPa | 0 mm | 6.26 m/s, 52° | - | - |
| 1778050784 | 8.89° C | 51% | 1014.8 hPa | 0 mm | 5.81 m/s, 63° | - | - |
| 1778050484 | 8.89° C | 52% | 1014.7 hPa | 0 mm | 5.36 m/s, 62° | - | - |
| 1778050183 | 8.89° C | 51% | 1014.4 hPa | 0 mm | 7.6 m/s, 69° | - | - |
| 1778049883 | 8.89° C | 51% | 1014.3 hPa | 0 mm | 7.6 m/s, 59° | - | - |
| 1778049582 | 8.89° C | 51% | 1014.2 hPa | 0 mm | 8.05 m/s, 53° | - | - |
| 1778049282 | 8.89° C | 53% | 1014.2 hPa | 0 mm | 6.71 m/s, 48° | - | - |
| 1778048981 | 8.89° C | 55% | 1014 hPa | 0 mm | 5.81 m/s, 66° | - | - |
| 1778048681 | 8.89° C | 58% | 1013.8 hPa | 0 mm | 5.36 m/s, 31° | - | - |
| 1778048380 | 9.44° C | 56% | 1013.7 hPa | 0 mm | 5.36 m/s, 80° | - | - |
* Rain latest hour (hover to see other rain measurements)
** Current wind speed in m/s (hover to see current wind gust speed)